createdAt,value
2022-10-22T00:02:44.004Z,8.67
2022-10-22T00:06:26.070Z,12.00
2022-10-22T00:10:09.418Z,8.83
2022-10-22T00:13:51.644Z,11.13
2022-10-22T00:17:33.346Z,12.60
2022-10-22T00:21:15.238Z,10.40
2022-10-22T00:24:57.204Z,9.53
2022-10-22T00:28:39.494Z,8.53
2022-10-22T00:32:21.277Z,10.73
2022-10-22T00:36:03.140Z,8.20
2022-10-22T00:39:45.006Z,12.83
2022-10-22T00:43:27.689Z,16.83
2022-10-22T00:47:09.489Z,10.77
2022-10-22T00:51:04.143Z,8.60
2022-10-22T00:54:46.096Z,6.97
2022-10-22T00:58:33.314Z,8.67
2022-10-22T01:02:16.106Z,7.33
2022-10-22T01:06:00.477Z,8.53
2022-10-22T01:10:05.897Z,12.03
2022-10-22T01:13:53.433Z,8.13
2022-10-22T01:17:44.454Z,7.73
2022-10-22T01:21:45.455Z,7.60
2022-10-22T01:25:53.952Z,8.67
2022-10-22T01:30:08.946Z,6.77
2022-10-22T01:33:53.265Z,8.73
2022-10-22T01:37:41.337Z,8.63
2022-10-22T01:41:23.689Z,6.03
2022-10-22T01:45:14.004Z,8.03
2022-10-22T01:49:21.934Z,8.18
2022-10-22T01:53:15.320Z,7.07
2022-10-22T01:57:18.266Z,7.37
2022-10-22T02:01:09.729Z,11.87
2022-10-22T02:05:02.333Z,9.73
2022-10-22T02:08:46.930Z,6.67
2022-10-22T02:12:30.957Z,5.67
2022-10-22T02:16:38.202Z,4.53
2022-10-22T02:20:27.272Z,8.60
2022-10-22T02:24:09.218Z,8.47
2022-10-22T02:28:10.277Z,6.63
2022-10-22T02:31:58.203Z,5.87
2022-10-22T02:35:46.800Z,8.27
2022-10-22T02:39:30.168Z,8.90
2022-10-22T02:43:12.029Z,11.63
2022-10-22T02:46:55.560Z,8.40
2022-10-22T02:50:37.502Z,5.63
2022-10-22T02:54:19.196Z,7.77
2022-10-22T02:58:00.908Z,10.83
2022-10-22T03:01:43.836Z,7.83
2022-10-22T03:05:25.544Z,11.40
2022-10-22T03:09:07.344Z,6.30
2022-10-22T03:12:49.173Z,7.33
2022-10-22T03:16:31.250Z,8.47
2022-10-22T03:20:12.979Z,9.93
2022-10-22T03:24:34.820Z,10.00
2022-10-22T03:28:18.284Z,6.53
2022-10-22T03:32:03.995Z,10.17
2022-10-22T03:35:47.901Z,10.80
2022-10-22T03:39:33.171Z,8.30
2022-10-22T03:43:15.409Z,7.53
2022-10-22T03:47:00.122Z,12.87
2022-10-22T03:50:44.302Z,11.10
2022-10-22T03:54:26.135Z,11.13
2022-10-22T03:58:07.908Z,10.47
2022-10-22T04:01:49.597Z,10.90
2022-10-22T04:05:33.981Z,10.67
2022-10-22T04:09:16.797Z,10.47
2022-10-22T04:12:58.632Z,14.50
2022-10-22T04:16:41.571Z,8.90
2022-10-22T04:20:23.772Z,12.47
2022-10-22T04:24:05.743Z,13.87
2022-10-22T04:27:48.462Z,12.67
2022-10-22T04:31:30.134Z,17.87
2022-10-22T04:35:12.151Z,10.77
2022-10-22T04:38:57.599Z,9.30
2022-10-22T04:42:39.615Z,12.13
2022-10-22T04:46:21.554Z,16.73
2022-10-22T04:50:03.662Z,18.10
2022-10-22T04:53:48.046Z,13.80
2022-10-22T04:57:31.192Z,11.27
2022-10-22T05:01:19.446Z,12.77
2022-10-22T05:05:01.738Z,16.27
2022-10-22T05:08:43.756Z,17.07
2022-10-22T05:12:26.075Z,15.37
2022-10-22T05:16:08.114Z,13.40
2022-10-22T05:19:49.985Z,15.30
2022-10-22T05:23:31.715Z,15.63
2022-10-22T05:27:15.234Z,15.30
2022-10-22T05:30:58.565Z,12.23
2022-10-22T05:34:40.257Z,11.23
2022-10-22T05:38:24.357Z,18.23
2022-10-22T05:42:06.141Z,16.67
2022-10-22T05:45:47.838Z,18.93
2022-10-22T05:49:29.589Z,13.87
2022-10-22T05:53:12.017Z,17.20
2022-10-22T05:56:55.554Z,20.47
2022-10-22T06:00:37.340Z,12.43
2022-10-22T06:04:20.594Z,16.90
2022-10-22T06:08:02.591Z,15.37
2022-10-22T06:11:45.525Z,21.53
2022-10-22T06:15:27.430Z,15.73
2022-10-22T06:19:14.338Z,16.00
2022-10-22T06:22:56.044Z,15.27
2022-10-22T06:26:38.517Z,15.17
2022-10-22T06:30:20.590Z,16.20
2022-10-22T06:34:12.534Z,16.67
2022-10-22T06:37:54.287Z,21.37
2022-10-22T06:41:36.143Z,19.30
2022-10-22T06:45:17.993Z,14.57
2022-10-22T06:49:02.971Z,17.80
2022-10-22T06:52:44.670Z,17.50
2022-10-22T06:56:29.403Z,16.73
2022-10-22T07:00:11.798Z,17.87
2022-10-22T07:03:56.541Z,20.00
2022-10-22T07:07:38.266Z,20.33
2022-10-22T07:11:23.636Z,17.23
2022-10-22T07:15:05.924Z,19.97
2022-10-22T07:18:48.143Z,17.43
2022-10-22T07:22:29.935Z,17.20
2022-10-22T07:26:14.262Z,20.03
2022-10-22T07:29:56.257Z,17.57
2022-10-22T07:33:38.200Z,20.47
2022-10-22T07:37:21.999Z,17.00
2022-10-22T07:41:04.295Z,15.00
2022-10-22T07:44:46.043Z,15.03
2022-10-22T07:48:27.909Z,20.93
2022-10-22T07:52:11.254Z,21.53
2022-10-22T07:55:53.474Z,16.07
2022-10-22T07:59:35.179Z,22.87
2022-10-22T08:03:18.938Z,21.07
2022-10-22T08:07:01.312Z,21.10
2022-10-22T08:10:44.080Z,18.07
2022-10-22T08:14:26.202Z,25.73
2022-10-22T08:18:08.007Z,20.83
2022-10-22T08:21:49.785Z,25.63
2022-10-22T08:25:32.655Z,31.23
2022-10-22T08:29:14.653Z,22.97
2022-10-22T08:32:56.776Z,24.90
2022-10-22T08:36:38.819Z,19.00
2022-10-22T08:40:30.449Z,22.77
2022-10-22T08:44:50.508Z,26.93
2022-10-22T08:48:41.174Z,27.10
2022-10-22T08:52:22.958Z,22.80
2022-10-22T08:56:06.450Z,19.97
2022-10-22T09:00:00.841Z,24.43
2022-10-22T09:03:45.727Z,21.20
2022-10-22T09:07:27.573Z,19.80
2022-10-22T09:11:15.727Z,20.77
2022-10-22T09:14:57.621Z,19.10
2022-10-22T09:18:57.365Z,20.63
2022-10-22T09:23:21.182Z,21.13
2022-10-22T09:27:16.881Z,15.83
2022-10-22T09:34:40.816Z,14.60
2022-10-22T09:38:39.533Z,10.63
2022-10-22T09:42:22.801Z,15.07
2022-10-22T09:50:46.443Z,22.33
2022-10-22T09:54:34.022Z,26.03
2022-10-22T09:58:18.682Z,19.40
2022-10-22T10:02:19.742Z,23.50
2022-10-22T10:06:08.578Z,13.87
2022-10-22T10:09:51.610Z,13.47
2022-10-22T10:13:40.454Z,13.67
2022-10-22T10:17:37.065Z,10.80
2022-10-22T10:21:51.026Z,16.03
2022-10-22T10:25:35.921Z,16.93
2022-10-22T10:29:25.544Z,13.50
2022-10-22T10:33:13.069Z,14.75
2022-10-22T10:37:09.721Z,13.13
2022-10-22T10:40:54.043Z,11.65
2022-10-22T10:44:44.222Z,18.77
2022-10-22T10:48:44.163Z,9.80
2022-10-22T10:52:45.709Z,12.10
2022-10-22T10:56:34.432Z,19.40
2022-10-22T11:00:22.025Z,9.27
2022-10-22T11:04:22.105Z,14.43
2022-10-22T11:08:15.443Z,12.48
2022-10-22T11:12:05.856Z,12.47
2022-10-22T11:16:17.859Z,16.37
2022-10-22T11:20:16.987Z,9.57
2022-10-22T11:24:28.571Z,14.02
2022-10-22T11:28:13.154Z,12.23
2022-10-22T11:31:56.242Z,12.23
2022-10-22T11:35:42.281Z,11.13
2022-10-22T11:39:38.747Z,9.53
2022-10-22T11:43:31.778Z,11.00
2022-10-22T11:47:26.413Z,8.70
2022-10-22T11:51:32.892Z,11.10
2022-10-22T11:55:55.757Z,7.67
2022-10-22T11:59:48.129Z,7.37
2022-10-22T12:03:33.113Z,5.97
2022-10-22T12:07:48.857Z,8.83
2022-10-22T12:11:51.294Z,11.37
2022-10-22T12:15:33.151Z,7.30
2022-10-22T12:19:24.351Z,8.87
2022-10-22T12:23:09.508Z,8.60
2022-10-22T12:26:53.535Z,5.93
2022-10-22T12:30:35.639Z,9.57
2022-10-22T12:34:22.222Z,6.87
2022-10-22T12:38:13.563Z,9.47
2022-10-22T12:41:55.434Z,5.23
2022-10-22T12:45:38.499Z,9.07
2022-10-22T12:49:35.267Z,8.23
2022-10-22T12:53:26.989Z,11.13
2022-10-22T12:57:15.585Z,8.07
2022-10-22T13:01:01.917Z,11.40
2022-10-22T13:05:18.538Z,10.20
2022-10-22T13:09:00.564Z,9.03
2022-10-22T13:12:48.938Z,6.07
2022-10-22T13:16:32.101Z,11.13
2022-10-22T13:20:23.896Z,8.17
2022-10-22T13:24:24.208Z,8.57
2022-10-22T13:31:56.789Z,5.93
2022-10-22T13:35:38.798Z,11.23
2022-10-22T13:39:23.321Z,12.93
2022-10-22T13:43:05.057Z,10.70
2022-10-22T13:46:48.367Z,10.90
2022-10-22T13:50:30.182Z,11.83
2022-10-22T13:54:21.065Z,8.17
2022-10-22T13:58:14.731Z,9.77
2022-10-22T14:01:57.067Z,8.10
2022-10-22T14:05:38.954Z,7.70
2022-10-22T14:09:20.929Z,6.57
2022-10-22T14:13:03.057Z,9.60
2022-10-22T14:16:45.146Z,8.20
2022-10-22T14:20:30.594Z,11.17
2022-10-22T14:24:13.380Z,11.27
2022-10-22T14:27:56.546Z,9.07
2022-10-22T14:31:44.331Z,8.90
2022-10-22T14:35:26.962Z,10.37
2022-10-22T14:39:08.695Z,8.80
2022-10-22T14:42:50.501Z,9.40
2022-10-22T14:46:32.426Z,11.13
2022-10-22T14:50:16.997Z,9.60
2022-10-22T14:53:58.798Z,15.43
2022-10-22T14:57:41.003Z,10.50
2022-10-22T15:01:23.355Z,8.53
2022-10-22T15:05:05.791Z,13.23
2022-10-22T15:08:51.383Z,13.03
2022-10-22T15:12:33.647Z,7.97
2022-10-22T15:16:16.548Z,9.10
2022-10-22T15:20:01.113Z,10.53
2022-10-22T15:23:42.877Z,8.87
2022-10-22T15:27:25.350Z,10.90
2022-10-22T15:31:08.115Z,11.33
2022-10-22T15:34:53.171Z,13.43
2022-10-22T15:38:34.898Z,13.20
2022-10-22T15:42:16.738Z,11.47
2022-10-22T15:46:16.610Z,12.13
2022-10-22T15:49:58.843Z,10.07
2022-10-22T15:53:41.176Z,11.97
2022-10-22T15:57:22.981Z,12.20
2022-10-22T16:01:10.509Z,13.40
2022-10-22T16:04:52.571Z,12.40
2022-10-22T16:08:34.900Z,10.37
2022-10-22T16:12:17.381Z,13.13
2022-10-22T16:16:04.522Z,16.77
2022-10-22T16:19:48.061Z,8.07
2022-10-22T16:23:29.842Z,9.20
2022-10-22T16:27:11.609Z,12.43
2022-10-22T16:30:54.377Z,11.87
2022-10-22T16:34:36.213Z,13.73
2022-10-22T16:38:19.044Z,10.63
2022-10-22T16:42:00.825Z,11.03
2022-10-22T16:45:52.045Z,14.17
2022-10-22T16:49:33.786Z,14.83
2022-10-22T16:53:15.552Z,14.87
2022-10-22T16:56:57.353Z,9.00
2022-10-22T17:00:39.318Z,16.20
2022-10-22T17:04:22.442Z,11.20
2022-10-22T17:08:04.459Z,13.63
2022-10-22T17:11:46.476Z,14.00
2022-10-22T17:15:28.234Z,12.10
2022-10-22T17:19:14.191Z,13.47
2022-10-22T17:22:55.968Z,13.53
2022-10-22T17:26:37.906Z,14.57
2022-10-22T17:30:23.475Z,22.83
2022-10-22T17:34:11.726Z,11.97
2022-10-22T17:37:53.423Z,14.97
2022-10-22T17:41:37.441Z,16.07
2022-10-22T17:45:19.986Z,25.00
2022-10-22T17:49:12.273Z,16.40
2022-10-22T17:52:54.174Z,14.93
2022-10-22T17:56:37.113Z,10.23
2022-10-22T18:00:21.446Z,14.73
2022-10-22T18:04:08.448Z,16.50
2022-10-22T18:07:54.660Z,11.07
2022-10-22T18:11:37.372Z,11.73
2022-10-22T18:15:19.167Z,11.87
2022-10-22T18:19:01.679Z,11.17
2022-10-22T18:22:45.340Z,14.80
2022-10-22T18:26:27.342Z,15.97
2022-10-22T18:30:09.587Z,15.77
2022-10-22T18:33:51.837Z,13.50
2022-10-22T18:37:36.027Z,16.07
2022-10-22T18:41:18.153Z,19.60
2022-10-22T18:44:59.986Z,14.43
2022-10-22T18:48:42.038Z,19.33
2022-10-22T18:52:23.910Z,18.70
2022-10-22T18:56:07.442Z,17.17
2022-10-22T18:59:49.151Z,17.47
2022-10-22T19:03:31.005Z,13.30
2022-10-22T19:07:13.326Z,30.17
2022-10-22T19:10:55.283Z,20.87
2022-10-22T19:14:37.050Z,17.90
2022-10-22T19:18:19.624Z,16.73
2022-10-22T19:22:01.341Z,22.20
2022-10-22T19:25:43.091Z,17.63
2022-10-22T19:29:24.960Z,21.63
2022-10-22T19:33:09.623Z,14.23
2022-10-22T19:36:51.855Z,20.30
2022-10-22T19:40:33.817Z,23.37
2022-10-22T19:44:15.848Z,13.23
2022-10-22T19:47:57.576Z,24.70
2022-10-22T19:51:40.407Z,18.07
2022-10-22T19:55:22.193Z,19.37
2022-10-22T19:59:05.210Z,16.03
2022-10-22T20:02:47.006Z,16.07
2022-10-22T20:06:29.712Z,16.00
2022-10-22T20:10:12.044Z,17.83
2022-10-22T20:13:55.111Z,20.83
2022-10-22T20:17:37.001Z,16.90
2022-10-22T20:21:19.386Z,21.57
2022-10-22T20:25:01.129Z,22.73
2022-10-22T20:28:42.844Z,18.90
2022-10-22T20:32:27.036Z,19.07
2022-10-22T20:36:13.233Z,18.03
2022-10-22T20:39:55.139Z,19.53
2022-10-22T20:43:37.267Z,17.87
2022-10-22T20:47:19.103Z,15.47
2022-10-22T20:51:01.665Z,25.53
2022-10-22T20:54:45.721Z,19.63
2022-10-22T20:58:30.557Z,20.27
2022-10-22T21:02:12.873Z,18.17
2022-10-22T21:05:54.707Z,16.13
2022-10-22T21:09:37.208Z,24.70
2022-10-22T21:13:19.508Z,16.63
2022-10-22T21:17:01.575Z,17.97
2022-10-22T21:20:43.612Z,19.07
2022-10-22T21:24:26.358Z,12.50
2022-10-22T21:28:08.196Z,15.17
2022-10-22T21:31:50.002Z,17.13
2022-10-22T21:35:33.355Z,16.67
2022-10-22T21:39:15.125Z,18.23
2022-10-22T21:42:57.116Z,18.37
2022-10-22T21:46:38.888Z,20.87
2022-10-22T21:50:20.823Z,19.57
2022-10-22T21:54:02.710Z,16.07
2022-10-22T21:57:44.900Z,15.73
2022-10-22T22:01:27.245Z,17.90
2022-10-22T22:05:09.569Z,16.60
2022-10-22T22:08:53.274Z,19.60
2022-10-22T22:12:35.386Z,15.50
2022-10-22T22:16:28.543Z,17.40
2022-10-22T22:20:11.295Z,18.27
2022-10-22T22:23:53.086Z,19.50
2022-10-22T22:27:34.925Z,19.50
2022-10-22T22:31:24.905Z,17.70
2022-10-22T22:35:06.892Z,20.33
2022-10-22T22:38:48.729Z,17.13
2022-10-22T22:42:30.427Z,19.47
2022-10-22T22:46:12.715Z,18.17
2022-10-22T22:49:54.480Z,20.07
2022-10-22T22:53:36.413Z,23.77
2022-10-22T22:57:18.159Z,17.63
2022-10-22T23:01:25.785Z,17.17
2022-10-22T23:05:08.161Z,19.03
2022-10-22T23:13:11.367Z,14.97
2022-10-22T23:16:53.427Z,19.60
2022-10-22T23:20:38.078Z,17.10
2022-10-22T23:24:23.194Z,18.17
2022-10-22T23:28:05.053Z,19.40
2022-10-22T23:31:48.262Z,17.23
2022-10-22T23:35:30.190Z,14.87
2022-10-22T23:39:15.066Z,18.20
2022-10-22T23:42:56.812Z,12.53
2022-10-22T23:46:38.930Z,14.67
2022-10-22T23:50:20.710Z,12.20
2022-10-22T23:54:06.378Z,9.07
2022-10-22T23:57:48.277Z,13.73
